Time;durP1;ratioP1;P1;durP2;ratioP2;P2;SDS_P1;SDS_P2;PMS_P1;PMS_P2;Temp;Humidity;BMP_temperature;BMP_pressure;BME280_temperature;BME280_humidity;BME280_pressure;Samples;Min_cycle;Max_cycle;Signal;HPM_P1;HPM_P2
2023/04/19 00:00:44;;;;;;;35.60;19.05;;;8.50;99.90;;;;;;5114313;28;20044;-62
2023/04/19 00:03:11;;;;;;;36.65;19.83;;;8.50;99.90;;;;;;5114317;28;20118;-62
2023/04/19 00:05:38;;;;;;;38.15;19.85;;;8.50;99.90;;;;;;5113975;28;20101;-62
2023/04/19 00:08:05;;;;;;;35.55;20.38;;;8.50;99.90;;;;;;5114512;28;20481;-61
2023/04/19 00:10:32;;;;;;;41.13;22.17;;;8.40;99.90;;;;;;5114206;28;20099;-62
2023/04/19 00:12:58;;;;;;;37.38;19.48;;;8.40;99.90;;;;;;5113781;28;20050;-62
2023/04/19 00:15:25;;;;;;;33.80;19.92;;;8.40;99.90;;;;;;5114081;28;20039;-62
2023/04/19 00:17:52;;;;;;;42.35;20.23;;;8.40;99.90;;;;;;5114103;28;20036;-62
2023/04/19 00:20:19;;;;;;;31.20;19.10;;;8.40;99.90;;;;;;5112491;28;20097;-62
2023/04/19 00:22:45;;;;;;;30.23;20.52;;;8.40;99.90;;;;;;5114083;28;20076;-60
2023/04/19 00:25:12;;;;;;;37.53;20.88;;;8.40;99.90;;;;;;5114448;28;20039;-62
2023/04/19 00:27:39;;;;;;;38.42;20.17;;;8.40;99.90;;;;;;5114230;28;20436;-61
2023/04/19 00:30:06;;;;;;;42.50;21.10;;;8.40;99.90;;;;;;5113717;28;20115;-61
2023/04/19 00:32:33;;;;;;;37.00;20.48;;;8.40;99.90;;;;;;5114017;28;20070;-62
2023/04/19 00:35:00;;;;;;;37.70;21.13;;;8.30;99.90;;;;;;5113882;28;20040;-62
2023/04/19 00:37:26;;;;;;;38.58;21.27;;;8.30;99.90;;;;;;5118023;28;20059;-61
2023/04/19 00:39:53;;;;;;;37.58;20.13;;;8.30;99.90;;;;;;5118220;28;20031;-62
2023/04/19 00:42:20;;;;;;;37.42;21.27;;;8.30;99.90;;;;;;5116727;28;20035;-62
2023/04/19 00:44:47;;;;;;;45.63;22.02;;;8.30;99.90;;;;;;5116634;28;20040;-63
2023/04/19 00:47:14;;;;;;;39.63;21.00;;;8.20;99.90;;;;;;5116467;28;20039;-61
2023/04/19 00:49:41;;;;;;;37.35;21.42;;;8.30;99.90;;;;;;5116704;28;20047;-61
2023/04/19 00:52:08;;;;;;;33.38;21.60;;;8.20;99.90;;;;;;5116851;28;20482;-62
2023/04/19 00:54:35;;;;;;;34.50;20.92;;;8.30;99.90;;;;;;5099360;28;20513;-62
2023/04/19 00:57:02;;;;;;;34.60;19.95;;;8.20;99.90;;;;;;5117794;28;20043;-62
2023/04/19 00:59:29;;;;;;;39.20;20.77;;;8.20;99.90;;;;;;5116119;28;20043;-62
2023/04/19 01:01:56;;;;;;;34.65;21.27;;;8.20;99.90;;;;;;5117404;28;20085;-63
2023/04/19 01:04:23;;;;;;;34.60;21.92;;;8.20;99.90;;;;;;5117256;28;20458;-62
2023/04/19 01:06:50;;;;;;;40.08;21.23;;;8.20;99.90;;;;;;5118049;28;20047;-62
2023/04/19 01:09:17;;;;;;;37.08;21.83;;;8.20;99.90;;;;;;5115849;28;20036;-62
2023/04/19 01:11:43;;;;;;;38.25;21.52;;;8.20;99.90;;;;;;5117562;28;20457;-61
2023/04/19 01:14:10;;;;;;;33.72;22.00;;;8.20;99.90;;;;;;5117562;28;20047;-62
2023/04/19 01:16:37;;;;;;;36.40;21.77;;;8.20;99.90;;;;;;5117555;28;20444;-62
2023/04/19 01:19:05;;;;;;;40.17;22.35;;;8.10;99.90;;;;;;5116018;28;20069;-62
2023/04/19 01:21:32;;;;;;;39.38;21.80;;;8.10;99.90;;;;;;5116043;28;20424;-61
2023/04/19 01:23:58;;;;;;;35.20;22.23;;;8.10;99.90;;;;;;5115725;28;20043;-62
2023/04/19 01:26:25;;;;;;;41.40;22.55;;;8.10;99.90;;;;;;5117527;28;20040;-62
2023/04/19 01:28:53;;;;;;;43.15;23.55;;;8.10;99.90;;;;;;5116131;28;20394;-62
2023/04/19 01:31:19;;;;;;;36.17;21.90;;;8.10;99.90;;;;;;5115486;28;20043;-62
2023/04/19 01:33:46;;;;;;;40.83;23.55;;;8.10;99.90;;;;;;5117194;28;20046;-62
2023/04/19 01:36:13;;;;;;;33.85;22.08;;;8.10;99.90;;;;;;5115628;28;20047;-62
2023/04/19 01:38:40;;;;;;;42.05;23.20;;;8.10;99.90;;;;;;5115407;28;20562;-62
2023/04/19 01:41:08;;;;;;;39.35;21.55;;;8.10;99.90;;;;;;5117053;27;20066;-62
2023/04/19 01:43:35;;;;;;;37.92;23.00;;;8.10;99.90;;;;;;5115881;28;20039;-62
2023/04/19 01:46:02;;;;;;;34.47;23.15;;;8.10;99.90;;;;;;5115712;28;20078;-62
2023/04/19 01:48:28;;;;;;;37.85;23.60;;;8.10;99.90;;;;;;5114514;28;20044;-61
2023/04/19 01:50:55;;;;;;;36.40;22.48;;;8.10;99.90;;;;;;5115316;28;20101;-62
2023/04/19 01:53:22;;;;;;;35.63;23.17;;;8.10;99.90;;;;;;5116199;28;20563;-62
2023/04/19 01:55:49;;;;;;;36.17;23.67;;;8.10;99.90;;;;;;5115336;28;20089;-62
2023/04/19 01:58:15;;;;;;;37.45;23.27;;;8.10;99.90;;;;;;5116584;28;20043;-62
2023/04/19 02:00:43;;;;;;;35.97;22.70;;;8.20;99.90;;;;;;5115199;28;20494;-62
2023/04/19 02:03:10;;;;;;;36.75;24.60;;;8.20;99.90;;;;;;5116387;28;20064;-61
2023/04/19 02:05:37;;;;;;;41.63;24.30;;;8.20;99.90;;;;;;5116609;28;20039;-62
2023/04/19 02:08:04;;;;;;;41.35;24.80;;;8.20;99.90;;;;;;5116635;28;20039;-61
2023/04/19 02:10:30;;;;;;;40.92;25.30;;;8.20;99.90;;;;;;5115975;28;20093;-62
2023/04/19 02:12:57;;;;;;;39.33;24.27;;;8.20;99.90;;;;;;5116190;28;20040;-61
2023/04/19 02:15:24;;;;;;;35.58;23.67;;;8.20;99.90;;;;;;5116518;28;20097;-61
2023/04/19 02:17:51;;;;;;;35.17;23.60;;;8.10;99.90;;;;;;5116035;28;20043;-62
2023/04/19 02:20:18;;;;;;;41.55;25.33;;;8.20;99.90;;;;;;5114598;28;20424;-63
2023/04/19 02:22:47;;;;;;;40.80;25.15;;;8.20;99.90;;;;;;5114826;28;20036;-62
2023/04/19 02:25:15;;;;;;;37.05;24.77;;;8.20;99.90;;;;;;5114812;28;20039;-62
2023/04/19 02:27:44;;;;;;;42.33;25.48;;;8.20;99.90;;;;;;5114712;28;20055;-62
2023/04/19 02:30:11;;;;;;;42.22;26.67;;;8.20;99.90;;;;;;5114686;28;20270;-62
2023/04/19 02:32:38;;;;;;;40.13;25.67;;;8.20;99.90;;;;;;5116173;28;20043;-61
2023/04/19 02:35:05;;;;;;;38.47;25.30;;;8.30;99.90;;;;;;5115654;27;20039;-62
2023/04/19 02:37:32;;;;;;;31.27;24.50;;;8.30;99.90;;;;;;5115664;28;20047;-62
2023/04/19 02:39:58;;;;;;;36.28;25.38;;;8.30;99.90;;;;;;5115471;28;20035;-63
2023/04/19 02:42:27;;;;;;;42.58;27.30;;;8.30;99.90;;;;;;5114562;28;20492;-62
2023/04/19 02:44:54;;;;;;;36.63;25.65;;;8.20;99.90;;;;;;5115386;28;20039;-62
2023/04/19 02:47:23;;;;;;;39.50;26.85;;;8.20;99.90;;;;;;5115714;28;20058;-63
2023/04/19 02:49:49;;;;;;;41.67;25.98;;;8.20;99.90;;;;;;5115525;28;20035;-62
2023/04/19 02:52:17;;;;;;;39.20;27.63;;;8.20;99.90;;;;;;5113994;28;20115;-62
2023/04/19 02:54:44;;;;;;;39.72;26.90;;;8.20;99.90;;;;;;5113731;28;20052;-62
2023/04/19 02:57:11;;;;;;;37.97;27.77;;;8.20;99.90;;;;;;5113949;28;20055;-63
2023/04/19 02:59:40;;;;;;;40.58;27.73;;;8.20;99.90;;;;;;5113352;28;20039;-62
2023/04/19 03:02:07;;;;;;;43.58;28.55;;;8.10;99.90;;;;;;5114255;28;20040;-62
2023/04/19 03:04:35;;;;;;;43.28;28.90;;;8.10;99.90;;;;;;5114027;28;20032;-62
2023/04/19 03:07:02;;;;;;;37.70;28.30;;;8.10;99.90;;;;;;5114091;28;20054;-62
2023/04/19 03:09:29;;;;;;;43.33;29.92;;;8.10;99.90;;;;;;5114193;28;20482;-62
2023/04/19 03:11:56;;;;;;;38.67;28.50;;;8.10;99.90;;;;;;5113722;28;20391;-62
2023/04/19 03:14:23;;;;;;;38.70;27.83;;;8.00;99.90;;;;;;5114932;28;20067;-62
2023/04/19 03:16:50;;;;;;;44.03;29.05;;;8.10;99.90;;;;;;5113561;28;20451;-62
2023/04/19 03:19:17;;;;;;;34.67;28.98;;;8.00;99.90;;;;;;5096610;28;20031;-62
2023/04/19 03:21:49;;;;;;;39.75;29.13;;;8.00;99.90;;;;;;5113432;28;20040;-61
2023/04/19 03:24:16;;;;;;;44.03;30.33;;;8.00;99.90;;;;;;5112931;28;20132;-62
2023/04/19 03:26:47;;;;;;;41.88;30.30;;;8.00;99.90;;;;;;5112044;28;20032;-62
2023/04/19 03:29:19;;;;;;;41.45;30.35;;;8.00;99.90;;;;;;5111770;28;20175;-61
2023/04/19 03:31:51;;;;;;;40.88;30.88;;;8.00;99.90;;;;;;5111832;28;20118;-61
2023/04/19 03:34:18;;;;;;;42.05;30.67;;;8.00;99.90;;;;;;5111116;28;20077;-61
2023/04/19 03:36:47;;;;;;;39.92;30.92;;;8.00;99.90;;;;;;5111752;28;20044;-62
2023/04/19 03:39:14;;;;;;;43.65;30.88;;;8.00;99.90;;;;;;5113356;28;20046;-62
2023/04/19 03:41:44;;;;;;;46.88;30.75;;;8.00;99.90;;;;;;5113459;28;20035;-61
2023/04/19 03:44:24;;;;;;;45.80;32.40;;;7.90;99.90;;;;;;5113366;28;20046;-61
2023/04/19 03:46:52;;;;;;;46.20;31.67;;;7.90;99.90;;;;;;5112950;28;20059;-62
2023/04/19 03:49:23;;;;;;;46.97;32.65;;;7.90;99.90;;;;;;5112808;28;20441;-61
2023/04/19 03:51:59;;;;;;;43.28;30.92;;;7.90;99.90;;;;;;5113331;28;20402;-61
2023/04/19 03:54:26;;;;;;;43.55;32.67;;;7.90;99.90;;;;;;5112721;28;20067;-62
2023/04/19 03:56:53;;;;;;;46.00;32.85;;;7.90;99.90;;;;;;5113030;28;20038;-61
2023/04/19 03:59:20;;;;;;;46.30;34.55;;;7.80;99.90;;;;;;5112861;28;20398;-61
2023/04/19 04:01:47;;;;;;;48.47;34.42;;;7.80;99.90;;;;;;5112952;28;20032;-62
2023/04/19 04:04:14;;;;;;;46.55;33.72;;;7.80;99.90;;;;;;5114334;28;20039;-62
2023/04/19 04:06:43;;;;;;;45.15;34.10;;;7.80;99.90;;;;;;5113218;28;20043;-61
2023/04/19 04:09:11;;;;;;;49.10;33.50;;;7.70;99.90;;;;;;5112923;28;20421;-61
2023/04/19 04:11:38;;;;;;;46.45;35.50;;;7.70;99.90;;;;;;5113287;28;20418;-62
2023/04/19 04:14:05;;;;;;;53.20;34.15;;;7.70;99.90;;;;;;5113161;28;20063;-61
2023/04/19 04:16:35;;;;;;;49.05;34.85;;;7.70;99.90;;;;;;5112835;28;20039;-61
2023/04/19 04:19:02;;;;;;;47.55;33.97;;;7.70;99.90;;;;;;5114116;28;20497;-61
2023/04/19 04:21:31;;;;;;;51.30;33.25;;;7.70;99.90;;;;;;5112371;28;20127;-61
2023/04/19 04:24:02;;;;;;;45.42;33.95;;;7.70;99.90;;;;;;5113086;28;20059;-61
2023/04/19 04:26:52;;;;;;;52.90;34.30;;;7.70;99.90;;;;;;5094181;28;20036;-61
2023/04/19 04:29:23;;;;;;;55.92;36.65;;;7.70;99.90;;;;;;5112997;28;20065;-61
2023/04/19 04:31:52;;;;;;;46.35;34.53;;;7.70;99.90;;;;;;5112717;28;20040;-61
2023/04/19 04:34:23;;;;;;;45.75;36.28;;;7.60;99.90;;;;;;5112464;28;20074;-60
2023/04/19 04:36:57;;;;;;;48.70;35.03;;;7.60;99.90;;;;;;5112834;28;20538;-61
2023/04/19 04:39:24;;;;;;;49.53;35.50;;;7.60;99.90;;;;;;5114073;28;20036;-61
2023/04/19 04:41:52;;;;;;;46.90;35.08;;;7.60;99.90;;;;;;5112244;28;20063;-60
2023/04/19 04:44:19;;;;;;;52.55;35.63;;;7.50;99.90;;;;;;5113701;28;20032;-62
2023/04/19 04:46:46;;;;;;;49.75;35.38;;;7.50;99.90;;;;;;5112342;28;20063;-61
2023/04/19 04:49:19;;;;;;;46.65;33.92;;;7.50;99.90;;;;;;5112664;28;20143;-61
2023/04/19 04:51:45;;;;;;;41.47;33.88;;;7.60;99.90;;;;;;5111999;28;20044;-61
2023/04/19 04:54:12;;;;;;;46.95;34.55;;;7.50;99.90;;;;;;5111993;28;20056;-61
2023/04/19 04:56:40;;;;;;;45.45;35.08;;;7.50;99.90;;;;;;5112431;28;20044;-61
2023/04/19 04:59:07;;;;;;;45.65;34.42;;;7.60;99.90;;;;;;5112542;28;20394;-61
2023/04/19 05:01:38;;;;;;;40.47;33.85;;;7.60;99.90;;;;;;5112411;28;20138;-62
2023/04/19 05:04:05;;;;;;;42.88;34.17;;;7.60;99.90;;;;;;5112811;28;20157;-61
2023/04/19 05:06:32;;;;;;;45.08;35.20;;;7.60;99.90;;;;;;5113628;28;20038;-61
2023/04/19 05:08:58;;;;;;;45.40;33.97;;;7.60;99.90;;;;;;5113606;28;20105;-62
2023/04/19 05:11:32;;;;;;;49.35;33.63;;;7.50;99.90;;;;;;5113754;28;20093;-61
2023/04/19 05:13:59;;;;;;;46.45;35.00;;;7.50;99.90;;;;;;5112608;28;20055;-62
2023/04/19 05:16:26;;;;;;;38.72;32.78;;;7.60;99.90;;;;;;5112378;28;20122;-62
2023/04/19 05:18:54;;;;;;;45.70;34.50;;;7.60;99.90;;;;;;5112589;28;20051;-62
2023/04/19 05:21:22;;;;;;;45.50;33.92;;;7.50;99.90;;;;;;5112698;28;20038;-61
2023/04/19 05:23:52;;;;;;;41.15;33.20;;;7.60;99.90;;;;;;5115993;28;20402;-61
2023/04/19 05:26:20;;;;;;;51.10;34.70;;;7.60;99.90;;;;;;5117325;27;20093;-61
2023/04/19 05:28:49;;;;;;;45.95;34.08;;;7.50;99.90;;;;;;5115865;28;20093;-62
2023/04/19 05:31:25;;;;;;;46.35;32.63;;;7.60;99.90;;;;;;5116041;28;20081;-62
2023/04/19 05:34:05;;;;;;;43.85;33.22;;;7.50;99.90;;;;;;5115624;28;20043;-60
2023/04/19 05:36:31;;;;;;;41.40;32.40;;;7.60;99.90;;;;;;5115740;28;20422;-61
2023/04/19 05:38:58;;;;;;;48.13;32.75;;;7.60;99.90;;;;;;5115346;28;20126;-63
2023/04/19 05:41:25;;;;;;;46.40;33.60;;;7.60;99.90;;;;;;5115558;28;20043;-62
2023/04/19 05:43:52;;;;;;;42.65;32.97;;;7.60;99.90;;;;;;5117192;28;20089;-62
2023/04/19 05:46:20;;;;;;;49.33;34.90;;;7.60;99.90;;;;;;5115416;28;20039;-61
2023/04/19 05:48:46;;;;;;;45.00;35.05;;;7.60;99.90;;;;;;5115926;28;20040;-61
2023/04/19 05:51:31;;;;;;;44.10;33.22;;;7.60;99.90;;;;;;5116869;28;20104;-62
2023/04/19 05:54:11;;;;;;;37.95;32.58;;;7.60;99.90;;;;;;5115506;28;20452;-62
2023/04/19 05:56:39;;;;;;;42.13;34.22;;;7.70;99.90;;;;;;5115660;28;20406;-62
2023/04/19 05:59:07;;;;;;;41.58;34.60;;;7.70;99.90;;;;;;5115525;28;20490;-62
2023/04/19 06:01:34;;;;;;;44.28;34.95;;;7.70;99.90;;;;;;5116371;28;20413;-62
2023/04/19 06:04:01;;;;;;;48.33;34.83;;;7.70;99.90;;;;;;5115584;28;20032;-61
2023/04/19 06:06:28;;;;;;;47.83;34.00;;;7.80;99.90;;;;;;5115521;28;20128;-62
2023/04/19 06:08:55;;;;;;;44.60;33.17;;;7.80;99.90;;;;;;5114824;28;20073;-62
2023/04/19 06:11:22;;;;;;;44.17;32.70;;;7.80;99.90;;;;;;5114835;28;20071;-62
2023/04/19 06:14:01;;;;;;;40.40;33.50;;;7.90;99.90;;;;;;5116669;28;20097;-62
2023/04/19 06:16:28;;;;;;;42.38;32.30;;;7.90;99.90;;;;;;5116291;28;20047;-62
2023/04/19 06:18:55;;;;;;;36.58;31.38;;;8.00;99.90;;;;;;5116152;28;20043;-61
2023/04/19 06:21:22;;;;;;;45.05;31.30;;;8.00;99.90;;;;;;5114983;28;20036;-61
2023/04/19 06:23:48;;;;;;;40.72;31.90;;;8.00;99.90;;;;;;5115072;28;20040;-62
2023/04/19 06:26:15;;;;;;;39.20;30.83;;;8.10;99.90;;;;;;5116211;28;20428;-61
2023/04/19 06:28:42;;;;;;;43.47;31.20;;;8.10;99.90;;;;;;5115890;28;20502;-62
2023/04/19 06:31:09;;;;;;;42.00;30.05;;;8.10;99.90;;;;;;5114954;28;20475;-62
2023/04/19 06:33:36;;;;;;;41.50;30.50;;;8.20;99.90;;;;;;5097797;28;20047;-62
2023/04/19 06:36:03;;;;;;;35.92;28.73;;;8.20;99.90;;;;;;5095078;28;20043;-61
2023/04/19 06:38:29;;;;;;;39.67;28.88;;;8.20;99.90;;;;;;5095213;28;20046;-62
2023/04/19 06:40:56;;;;;;;37.63;29.20;;;8.30;99.90;;;;;;5095420;28;20109;-61
2023/04/19 06:43:23;;;;;;;34.50;28.30;;;8.30;99.90;;;;;;5095344;28;20040;-62
2023/04/19 06:45:50;;;;;;;38.13;28.50;;;8.40;99.90;;;;;;5094226;28;20063;-61
2023/04/19 06:48:16;;;;;;;41.35;28.42;;;8.40;99.90;;;;;;5094950;28;20380;-61
2023/04/19 06:50:43;;;;;;;34.10;27.45;;;8.50;99.90;;;;;;5095529;28;20124;-61
2023/04/19 06:53:10;;;;;;;33.85;26.98;;;8.50;99.90;;;;;;5095023;28;20479;-61
2023/04/19 06:55:37;;;;;;;39.92;27.90;;;8.60;99.90;;;;;;5093850;28;20131;-61
2023/04/19 06:58:03;;;;;;;35.25;26.42;;;8.60;99.90;;;;;;5094788;28;20040;-62
2023/04/19 07:00:30;;;;;;;30.25;25.08;;;8.80;99.90;;;;;;5095201;28;20044;-61
2023/04/19 07:02:59;;;;;;;32.13;25.95;;;8.80;99.90;;;;;;5095075;28;20042;-61
2023/04/19 07:05:26;;;;;;;35.03;25.00;;;8.90;99.90;;;;;;5095119;28;20048;-61
2023/04/19 07:07:52;;;;;;;32.72;24.75;;;9.00;99.90;;;;;;5094867;28;20131;-61
2023/04/19 07:10:19;;;;;;;33.33;24.77;;;9.10;99.90;;;;;;5095023;28;20089;-62
2023/04/19 07:12:46;;;;;;;29.20;25.45;;;9.20;99.90;;;;;;5094945;28;20035;-62
2023/04/19 07:15:13;;;;;;;37.67;26.25;;;9.30;99.90;;;;;;5094905;28;20127;-61
2023/04/19 07:17:39;;;;;;;32.28;24.02;;;9.40;99.90;;;;;;5094502;28;20463;-61
2023/04/19 07:20:06;;;;;;;35.53;24.27;;;9.50;99.90;;;;;;5094319;28;20039;-60
2023/04/19 07:22:33;;;;;;;32.17;23.98;;;9.60;99.90;;;;;;5094456;28;20093;-61
2023/04/19 07:25:00;;;;;;;31.38;24.10;;;9.70;99.90;;;;;;5094770;28;20466;-61
2023/04/19 07:27:27;;;;;;;28.42;23.38;;;9.80;99.90;;;;;;5102698;28;20092;-62
2023/04/19 07:29:53;;;;;;;29.48;22.77;;;9.90;99.90;;;;;;5114917;28;20444;-62
2023/04/19 07:32:20;;;;;;;33.22;22.88;;;9.90;99.90;;;;;;5115056;28;20082;-62
2023/04/19 07:34:47;;;;;;;29.98;22.58;;;10.00;99.90;;;;;;5114945;28;20093;-61
2023/04/19 07:37:14;;;;;;;32.03;23.70;;;10.10;99.90;;;;;;5114829;28;20035;-61
2023/04/19 07:39:41;;;;;;;37.05;23.42;;;10.20;99.90;;;;;;5113184;28;20076;-61
2023/04/19 07:42:07;;;;;;;37.55;23.90;;;10.20;99.90;;;;;;5114723;28;20478;-61
2023/04/19 07:44:34;;;;;;;31.75;23.17;;;10.30;99.90;;;;;;5114286;28;20032;-62
2023/04/19 07:47:01;;;;;;;31.75;23.25;;;10.40;99.90;;;;;;5113653;28;20481;-62
2023/04/19 07:49:32;;;;;;;30.90;23.70;;;10.40;99.90;;;;;;5114259;28;20478;-62
2023/04/19 07:52:00;;;;;;;31.30;23.92;;;10.40;99.90;;;;;;5114496;27;20044;-61
2023/04/19 07:54:27;;;;;;;34.33;23.38;;;10.40;99.90;;;;;;5113440;28;20051;-62
2023/04/19 07:56:54;;;;;;;35.60;23.58;;;10.50;99.90;;;;;;5113003;28;20039;-62
2023/04/19 07:59:21;;;;;;;30.10;22.88;;;10.60;99.90;;;;;;5113636;28;20055;-62
2023/04/19 08:01:47;;;;;;;37.38;23.80;;;10.70;99.90;;;;;;5113562;28;20038;-62
2023/04/19 08:04:15;;;;;;;33.25;23.55;;;10.70;99.90;;;;;;5113782;28;20066;-61
2023/04/19 08:06:44;;;;;;;36.95;24.40;;;10.80;99.90;;;;;;5111137;28;20466;-61
2023/04/19 08:09:10;;;;;;;32.40;23.88;;;10.90;99.90;;;;;;5113610;28;20143;-63
2023/04/19 08:11:37;;;;;;;28.10;23.40;;;11.00;99.90;;;;;;5113068;28;20088;-62
2023/04/19 08:14:04;;;;;;;32.40;23.25;;;11.10;99.90;;;;;;5114521;28;20047;-62
2023/04/19 08:16:50;;;;;;;32.05;22.75;;;11.10;99.90;;;;;;5114297;28;20089;-63
2023/04/19 08:19:20;;;;;;;27.98;22.52;;;11.10;99.90;;;;;;5113899;28;20085;-62
2023/04/19 08:21:47;;;;;;;28.10;22.42;;;11.20;99.90;;;;;;5114630;28;20035;-62
2023/04/19 08:24:14;;;;;;;27.08;21.40;;;11.30;99.90;;;;;;5113845;28;20043;-63
2023/04/19 08:26:41;;;;;;;28.90;21.58;;;11.40;99.90;;;;;;5114315;28;20077;-63
2023/04/19 08:29:08;;;;;;;28.90;21.83;;;11.50;99.90;;;;;;5114336;28;20426;-62
2023/04/19 08:31:35;;;;;;;29.42;21.17;;;11.50;99.90;;;;;;5112377;28;20119;-62
2023/04/19 08:34:02;;;;;;;30.45;21.13;;;11.60;99.90;;;;;;5113184;28;20093;-62
2023/04/19 08:36:29;;;;;;;28.70;20.85;;;11.70;99.90;;;;;;5113556;28;20043;-63
2023/04/19 08:39:05;;;;;;;;;;;11.80;99.90;;;;;;5114212;28;20055;-62
2023/04/19 08:41:51;;;;;;;;;;;11.80;99.90;;;;;;5114460;28;19963;-63
2023/04/19 08:44:31;;;;;;;25.98;19.23;;;11.80;99.90;;;;;;5114452;28;20270;-62
2023/04/19 08:47:03;;;;;;;23.65;19.42;;;11.80;99.90;;;;;;5114295;28;20044;-65
2023/04/19 08:49:30;;;;;;;23.30;19.45;;;11.80;99.90;;;;;;5114039;28;20046;-63
2023/04/19 08:51:56;;;;;;;23.60;20.08;;;11.80;99.90;;;;;;5113877;28;20047;-63
2023/04/19 08:54:23;;;;;;;25.75;20.17;;;11.80;99.90;;;;;;5113721;28;20509;-62
2023/04/19 08:56:50;;;;;;;28.48;20.48;;;11.90;99.90;;;;;;5114957;28;20031;-63
2023/04/19 08:59:17;;;;;;;23.88;20.00;;;11.90;99.90;;;;;;5117741;28;20126;-62
2023/04/19 09:01:45;;;;;;;27.85;20.42;;;12.00;99.90;;;;;;5108622;28;20044;-62
2023/04/19 09:04:12;;;;;;;24.55;20.83;;;12.00;99.90;;;;;;5097346;28;20042;-62
2023/04/19 09:06:42;;;;;;;26.80;20.30;;;12.00;99.90;;;;;;5097293;28;20086;-62
2023/04/19 09:09:11;;;;;;;28.65;20.17;;;12.10;99.90;;;;;;5115071;28;20040;-62
2023/04/19 09:11:58;;;;;;;29.15;20.50;;;12.10;99.90;;;;;;5116149;28;20411;-62
2023/04/19 09:14:24;;;;;;;26.27;19.83;;;12.20;99.90;;;;;;5110003;28;20060;-61
2023/04/19 09:16:51;;;;;;;28.27;20.08;;;12.20;99.90;;;;;;5104401;28;20077;-61
2023/04/19 09:19:18;;;;;;;28.90;21.05;;;12.30;99.90;;;;;;5109825;28;20044;-61
2023/04/19 09:21:52;;;;;;;23.25;20.02;;;12.30;99.90;;;;;;5112573;28;20040;-60
2023/04/19 09:24:20;;;;;;;22.15;19.38;;;12.30;99.90;;;;;;5108145;28;20036;-61
2023/04/19 09:26:47;;;;;;;26.13;20.27;;;12.40;99.90;;;;;;5111227;28;20036;-61
2023/04/19 09:29:14;;;;;;;29.00;20.20;;;12.30;99.90;;;;;;5112580;28;20100;-61
2023/04/19 09:31:41;;;;;;;25.23;19.30;;;12.30;99.90;;;;;;5108771;28;20082;-61
2023/04/19 09:34:17;;;;;;;23.42;18.80;;;12.30;99.90;;;;;;5110729;28;20057;-61
2023/04/19 09:36:44;;;;;;;29.10;18.25;;;12.30;99.90;;;;;;5111948;28;20039;-61
2023/04/19 09:39:13;;;;;;;24.67;18.85;;;12.30;99.90;;;;;;5110298;28;20517;-61
2023/04/19 09:41:40;;;;;;;20.58;17.35;;;12.40;99.90;;;;;;5112160;28;20111;-61
2023/04/19 09:44:09;;;;;;;22.63;17.55;;;12.50;99.90;;;;;;5108343;28;20149;-61
2023/04/19 09:46:56;;;;;;;22.80;17.15;;;12.60;99.90;;;;;;5111224;28;20446;-61
2023/04/19 09:49:23;;;;;;;21.23;17.08;;;12.60;99.90;;;;;;5110220;28;20381;-61
2023/04/19 09:52:07;;;;;;;24.83;16.10;;;12.70;99.90;;;;;;5110483;28;20054;-61
2023/04/19 09:54:33;;;;;;;25.00;17.50;;;12.80;99.90;;;;;;5110666;28;20048;-61
2023/04/19 09:57:00;;;;;;;23.45;16.52;;;12.80;99.90;;;;;;5109710;28;20059;-60
2023/04/19 09:59:27;;;;;;;20.90;15.35;;;12.80;99.90;;;;;;5110838;28;20031;-61
2023/04/19 10:01:54;;;;;;;20.45;15.82;;;12.90;99.90;;;;;;5112278;28;20043;-62
2023/04/19 10:04:22;;;;;;;22.17;15.85;;;13.00;99.90;;;;;;5110853;28;20069;-62
2023/04/19 10:07:09;;;;;;;18.65;15.55;;;13.00;99.90;;;;;;5106816;28;20040;-61
2023/04/19 10:09:55;;;;;;;25.48;15.23;;;13.10;99.90;;;;;;5109755;28;20067;-63
2023/04/19 10:12:37;;;;;;;18.55;14.85;;;13.30;99.90;;;;;;5103724;28;20122;-62
2023/04/19 10:15:24;;;;;;;20.15;15.38;;;13.40;99.90;;;;;;5107256;28;20526;-62
2023/04/19 10:17:55;;;;;;;21.63;15.10;;;13.40;99.90;;;;;;5108985;28;20039;-62
2023/04/19 10:20:22;;;;;;;28.33;15.85;;;13.40;99.90;;;;;;5112198;28;20054;-62
2023/04/19 10:22:49;;;;;;;24.98;16.15;;;13.30;99.90;;;;;;5112056;28;20042;-62
2023/04/19 10:25:16;;;;;;;19.98;14.00;;;13.40;99.90;;;;;;5108613;28;20245;-62
2023/04/19 10:27:47;;;;;;;20.77;15.20;;;13.50;99.90;;;;;;5107672;28;20040;-62
2023/04/19 10:30:14;;;;;;;26.50;15.45;;;13.70;99.90;;;;;;5109868;28;20043;-63
2023/04/19 10:32:41;;;;;;;27.58;14.55;;;13.70;99.90;;;;;;5112362;28;20061;-61
2023/04/19 10:35:08;;;;;;;20.70;14.18;;;13.90;99.90;;;;;;5110783;28;20036;-62
2023/04/19 10:37:35;;;;;;;21.77;15.13;;;14.00;99.90;;;;;;5110195;28;20151;-62
2023/04/19 10:40:02;;;;;;;24.67;15.18;;;13.90;99.90;;;;;;5108671;28;20450;-61
2023/04/19 10:42:29;;;;;;;25.42;14.25;;;13.90;99.90;;;;;;5109434;28;20040;-62
2023/04/19 10:44:56;;;;;;;18.67;14.23;;;14.00;99.90;;;;;;5110029;28;20043;-63
2023/04/19 10:47:23;;;;;;;19.13;13.20;;;14.10;99.90;;;;;;5110593;28;20111;-63
2023/04/19 10:49:49;;;;;;;20.05;13.57;;;14.10;99.90;;;;;;5110738;28;20118;-63
2023/04/19 10:52:16;;;;;;;20.83;13.43;;;14.00;99.90;;;;;;5105837;28;20048;-62
2023/04/19 10:54:43;;;;;;;16.67;12.73;;;14.10;99.90;;;;;;5107486;28;20056;-62
2023/04/19 10:57:10;;;;;;;19.48;13.35;;;14.20;99.90;;;;;;5112262;28;20071;-62
2023/04/19 10:59:37;;;;;;;19.48;12.80;;;14.30;99.90;;;;;;5107094;28;20104;-63
2023/04/19 11:02:04;;;;;;;18.08;12.50;;;14.30;99.90;;;;;;5110012;28;20044;-63
2023/04/19 11:04:31;;;;;;;18.15;12.57;;;14.30;99.90;;;;;;5108420;28;20054;-63
2023/04/19 11:07:00;;;;;;;24.15;13.40;;;14.20;99.90;;;;;;5110317;28;20469;-63
2023/04/19 11:09:27;;;;;;;22.40;13.82;;;14.10;99.90;;;;;;5104842;28;20092;-62
2023/04/19 11:11:54;;;;;;;30.25;14.00;;;14.10;99.90;;;;;;5096959;28;20036;-61
2023/04/19 11:14:21;;;;;;;24.65;12.73;;;14.10;99.90;;;;;;5114178;28;20482;-61
2023/04/19 11:16:47;;;;;;;25.27;12.88;;;14.10;99.90;;;;;;5114259;28;20043;-61
2023/04/19 11:19:14;;;;;;;29.27;13.45;;;14.00;99.90;;;;;;5112495;28;20089;-61
2023/04/19 11:21:41;;;;;;;24.92;13.30;;;13.90;99.90;;;;;;5112527;28;20402;-62
2023/04/19 11:24:08;;;;;;;23.23;13.02;;;13.90;99.90;;;;;;5107711;28;20032;-63
2023/04/19 11:26:35;;;;;;;18.58;11.65;;;13.80;99.90;;;;;;5114401;28;20421;-62
2023/04/19 11:29:01;;;;;;;31.83;13.35;;;13.70;99.90;;;;;;5112886;28;20528;-63
2023/04/19 11:31:28;;;;;;;31.02;13.85;;;13.80;99.90;;;;;;5113107;28;20043;-63
2023/04/19 11:33:55;;;;;;;19.25;12.90;;;13.90;99.90;;;;;;5112863;28;20555;-62
2023/04/19 11:36:22;;;;;;;21.48;12.90;;;14.00;99.90;;;;;;5113777;28;20070;-62
2023/04/19 11:38:49;;;;;;;24.73;12.95;;;14.00;99.90;;;;;;5105510;28;20081;-62
2023/04/19 11:41:15;;;;;;;18.73;11.98;;;14.00;99.90;;;;;;5093101;28;20071;-62
2023/04/19 11:43:45;;;;;;;36.60;13.68;;;14.30;99.90;;;;;;5094673;28;20044;-62
2023/04/19 11:46:12;;;;;;;18.98;13.10;;;14.50;99.90;;;;;;5112767;28;20070;-62
2023/04/19 11:48:39;;;;;;;22.00;13.38;;;14.60;99.90;;;;;;5108487;28;20043;-62
2023/04/19 11:51:05;;;;;;;17.73;11.85;;;14.60;99.90;;;;;;5113591;28;20035;-63
2023/04/19 11:53:33;;;;;;;16.02;11.63;;;14.60;99.90;;;;;;5113891;28;20036;-62
2023/04/19 11:56:00;;;;;;;15.50;11.65;;;14.60;99.90;;;;;;5113759;28;20075;-62
2023/04/19 11:58:28;;;;;;;18.17;11.95;;;14.60;99.90;;;;;;5112762;28;20067;-62
2023/04/19 12:00:55;;;;;;;18.23;11.38;;;14.80;99.90;;;;;;5113439;28;20040;-62
2023/04/19 12:03:22;;;;;;;18.45;12.18;;;14.90;99.90;;;;;;5107548;28;20038;-63
2023/04/19 12:05:51;;;;;;;16.42;12.98;;;14.90;99.90;;;;;;5112237;28;20039;-62
2023/04/19 12:08:18;;;;;;;17.05;11.45;;;14.80;99.90;;;;;;5113670;28;20466;-62
2023/04/19 12:10:45;;;;;;;16.60;11.15;;;14.80;99.90;;;;;;5113518;28;20402;-62
2023/04/19 12:13:12;;;;;;;17.45;11.98;;;14.80;99.90;;;;;;5110132;28;20475;-62
2023/04/19 12:15:39;;;;;;;18.58;12.13;;;14.90;99.90;;;;;;5093754;28;20047;-62
2023/04/19 12:18:05;;;;;;;17.45;12.75;;;14.90;99.90;;;;;;5099360;28;20044;-62
2023/04/19 12:20:32;;;;;;;19.33;11.82;;;15.00;99.90;;;;;;5104957;28;20040;-62
2023/04/19 12:22:59;;;;;;;16.67;10.65;;;15.00;99.90;;;;;;5113149;28;20035;-62
2023/04/19 12:25:26;;;;;;;23.02;10.70;;;15.10;99.90;;;;;;5113457;28;20039;-62
2023/04/19 12:27:53;;;;;;;14.02;10.50;;;15.10;99.90;;;;;;5111004;28;20036;-63
2023/04/19 12:30:20;;;;;;;18.33;10.85;;;15.30;99.90;;;;;;5110921;28;20453;-62
2023/04/19 12:32:46;;;;;;;17.50;9.23;;;15.20;99.90;;;;;;5115919;28;20080;-62
2023/04/19 12:35:13;;;;;;;15.23;9.07;;;15.20;99.90;;;;;;5112287;28;20047;-62
2023/04/19 12:37:40;;;;;;;12.57;8.25;;;14.90;99.90;;;;;;5115980;28;20486;-62